createdAt,value
2024-03-15T00:00:13.857Z,100813.16
2024-03-15T00:02:43.503Z,100771.13
2024-03-15T00:05:10.935Z,100815.84
2024-03-15T00:07:37.860Z,100803.19
2024-03-15T00:10:05.119Z,100773.53
2024-03-15T00:12:33.446Z,100745.28
2024-03-15T00:15:01.296Z,100805.06
2024-03-15T00:17:29.300Z,100802.97
2024-03-15T00:19:56.177Z,100803.66
2024-03-15T00:22:26.259Z,100808.78
2024-03-15T00:24:53.092Z,100799.91
2024-03-15T00:27:20.235Z,100805.38
2024-03-15T00:29:47.314Z,100799.75
2024-03-15T00:32:16.972Z,100804.84
2024-03-15T00:34:44.590Z,100786.50
2024-03-15T00:37:11.492Z,100771.13
2024-03-15T00:39:38.328Z,100787.56
2024-03-15T00:42:05.217Z,100736.41
2024-03-15T00:44:33.038Z,100787.72
2024-03-15T00:47:00.057Z,100700.72
2024-03-15T00:49:27.090Z,100716.72
2024-03-15T00:51:54.084Z,100766.88
2024-03-15T00:54:21.088Z,100733.66
2024-03-15T00:56:48.296Z,100774.41
2024-03-15T00:59:15.662Z,100767.72
2024-03-15T01:01:44.708Z,100751.31
2024-03-15T01:04:11.889Z,100724.94
2024-03-15T01:06:39.520Z,100752.78
2024-03-15T01:09:06.639Z,100764.81
2024-03-15T01:11:33.689Z,100741.47
2024-03-15T01:14:00.816Z,100722.22
2024-03-15T01:16:28.850Z,100726.72
2024-03-15T01:18:55.921Z,100749.91
2024-03-15T01:21:27.930Z,100676.16
2024-03-15T01:23:56.404Z,100685.28
2024-03-15T01:26:23.513Z,100744.44
2024-03-15T01:28:50.428Z,100741.63
2024-03-15T01:31:17.578Z,100743.13
2024-03-15T01:33:44.823Z,100739.22
2024-03-15T01:36:11.892Z,100739.94
2024-03-15T01:38:38.941Z,100731.56
2024-03-15T01:41:09.288Z,100721.81
2024-03-15T01:43:51.143Z,100737.94
2024-03-15T01:46:18.389Z,100730.13
2024-03-15T01:48:46.154Z,100674.97
2024-03-15T01:51:13.667Z,100666.44
2024-03-15T01:53:41.122Z,100717.34
2024-03-15T01:56:08.454Z,100720.47
2024-03-15T01:58:36.748Z,100716.72
2024-03-15T02:01:04.134Z,100684.16
2024-03-15T02:03:31.531Z,100704.53
2024-03-15T02:05:58.515Z,100701.50
2024-03-15T02:08:26.264Z,100660.88
2024-03-15T02:10:53.361Z,100616.22
2024-03-15T02:13:20.306Z,100698.44
2024-03-15T02:15:47.950Z,100703.94
2024-03-15T02:18:15.068Z,100693.22
2024-03-15T02:20:42.630Z,100691.84
2024-03-15T02:23:09.999Z,100692.69
2024-03-15T02:25:37.822Z,100641.06
2024-03-15T02:28:07.651Z,100694.25
2024-03-15T02:30:34.686Z,100687.50
2024-03-15T02:33:01.828Z,100688.22
2024-03-15T02:35:32.682Z,100692.00
2024-03-15T02:38:00.306Z,100698.47
2024-03-15T02:40:27.356Z,100642.28
2024-03-15T02:42:54.606Z,100684.56
2024-03-15T02:45:23.397Z,100662.03
2024-03-15T02:47:50.999Z,100663.66
2024-03-15T02:50:19.090Z,100671.53
2024-03-15T02:52:49.932Z,100657.63
2024-03-15T02:55:17.225Z,100643.59
2024-03-15T02:57:44.152Z,100680.22
2024-03-15T03:00:11.720Z,100630.28
2024-03-15T03:02:39.295Z,100658.72
2024-03-15T03:05:08.544Z,100660.31
2024-03-15T03:07:35.403Z,100667.44
2024-03-15T03:10:02.235Z,100595.00
2024-03-15T03:12:29.138Z,100669.38
2024-03-15T03:14:56.150Z,100648.44
2024-03-15T03:17:23.057Z,100666.00
2024-03-15T03:19:49.990Z,100660.38
2024-03-15T03:22:19.058Z,100658.94
2024-03-15T03:24:48.073Z,100643.56
2024-03-15T03:27:15.210Z,100649.13
2024-03-15T03:29:43.059Z,100637.16
2024-03-15T03:32:12.963Z,100599.16
2024-03-15T03:34:40.591Z,100664.88
2024-03-15T03:37:07.469Z,100654.03
2024-03-15T03:39:34.472Z,100656.91
2024-03-15T03:42:04.245Z,100652.47
2024-03-15T03:44:32.636Z,100633.34
2024-03-15T03:46:59.701Z,100583.00
2024-03-15T03:49:26.569Z,100645.34
2024-03-15T03:51:54.422Z,100648.72
2024-03-15T03:54:21.373Z,100650.97
2024-03-15T03:56:49.453Z,100654.03
2024-03-15T03:59:16.369Z,100652.63
2024-03-15T04:01:43.781Z,100646.53
2024-03-15T04:04:12.678Z,100639.84
2024-03-15T04:06:39.659Z,100642.22
2024-03-15T04:09:06.678Z,100624.31
2024-03-15T04:11:33.627Z,100552.66
2024-03-15T04:14:00.635Z,100622.31
2024-03-15T04:16:27.606Z,100659.63
2024-03-15T04:18:54.828Z,100649.34
2024-03-15T04:21:23.589Z,100655.38
2024-03-15T04:23:50.803Z,100613.41
2024-03-15T04:26:18.195Z,100651.09
2024-03-15T04:28:45.136Z,100650.03
2024-03-15T04:31:12.069Z,100561.22
2024-03-15T04:33:39.298Z,100647.31
2024-03-15T04:36:06.707Z,100651.81
2024-03-15T04:38:34.263Z,100578.53
2024-03-15T04:41:11.302Z,100633.41
2024-03-15T04:43:38.645Z,100635.75
2024-03-15T04:46:06.347Z,100587.28
2024-03-15T04:48:33.897Z,100618.09
2024-03-15T04:51:02.055Z,100634.81
2024-03-15T04:53:30.372Z,100632.88
2024-03-15T04:55:57.471Z,100611.66
2024-03-15T04:58:25.349Z,100626.38
2024-03-15T05:00:52.890Z,100565.25
2024-03-15T05:03:19.847Z,100621.19
2024-03-15T05:05:47.086Z,100605.06
2024-03-15T05:08:14.080Z,100612.97
2024-03-15T05:10:41.162Z,100613.78
2024-03-15T05:13:08.253Z,100556.72
2024-03-15T05:15:35.524Z,100605.00
2024-03-15T05:18:02.942Z,100610.41
2024-03-15T05:20:29.930Z,100548.56
2024-03-15T05:22:56.925Z,100604.19
2024-03-15T05:25:23.925Z,100603.34
2024-03-15T05:27:52.593Z,100543.75
2024-03-15T05:30:20.362Z,100607.75
2024-03-15T05:32:47.689Z,100608.75
2024-03-15T05:35:19.691Z,100571.06
2024-03-15T05:37:47.061Z,100551.84
2024-03-15T05:40:14.998Z,100608.16
2024-03-15T05:42:42.782Z,100602.91
2024-03-15T05:45:09.808Z,100606.78
2024-03-15T05:47:37.484Z,100600.91
2024-03-15T05:50:06.234Z,100587.75
2024-03-15T05:52:36.182Z,100625.06
2024-03-15T05:55:03.941Z,100628.09
2024-03-15T05:57:31.370Z,100617.56
2024-03-15T06:00:01.973Z,100583.97
2024-03-15T06:02:28.795Z,100615.59
2024-03-15T06:04:55.840Z,100612.69
2024-03-15T06:07:23.157Z,100610.75
2024-03-15T06:09:51.143Z,100607.13
2024-03-15T06:12:18.492Z,100615.16
2024-03-15T06:14:45.550Z,100580.22
2024-03-15T06:17:13.051Z,100630.19
2024-03-15T06:19:40.166Z,100574.47
2024-03-15T06:22:08.313Z,100560.56
2024-03-15T06:24:35.392Z,100628.81
2024-03-15T06:27:04.269Z,100579.44
2024-03-15T06:29:35.573Z,100617.88
2024-03-15T06:32:02.691Z,100621.19
2024-03-15T06:34:33.553Z,100615.31
2024-03-15T06:37:03.736Z,100630.56
2024-03-15T06:39:39.836Z,100627.13
2024-03-15T06:42:22.931Z,100616.91
2024-03-15T06:45:02.922Z,100631.16
2024-03-15T06:47:32.572Z,100633.72
2024-03-15T06:50:22.105Z,100618.16
2024-03-15T06:52:49.377Z,100635.38
2024-03-15T06:55:18.780Z,100624.56
2024-03-15T06:57:46.830Z,100644.44
2024-03-15T07:00:16.024Z,100626.59
2024-03-15T07:02:47.059Z,100630.13
2024-03-15T07:05:18.430Z,100640.75
2024-03-15T07:07:45.400Z,100637.97
2024-03-15T07:10:13.153Z,100484.13
2024-03-15T07:12:40.900Z,100642.75
2024-03-15T07:15:11.326Z,100642.28
2024-03-15T07:17:39.309Z,100631.81
2024-03-15T07:20:10.516Z,100643.09
2024-03-15T07:22:39.228Z,100637.41
2024-03-15T07:25:08.187Z,100642.78
2024-03-15T07:27:42.601Z,100646.53
2024-03-15T07:30:13.385Z,100610.94
2024-03-15T07:32:40.427Z,100639.91
2024-03-15T07:35:11.551Z,100623.47
2024-03-15T07:37:39.790Z,100660.22
2024-03-15T07:40:10.762Z,100650.78
2024-03-15T07:42:38.232Z,100651.06
2024-03-15T07:45:05.647Z,100643.47
2024-03-15T07:47:32.667Z,100634.91
2024-03-15T07:50:00.224Z,100649.13
2024-03-15T07:52:27.211Z,100656.81
2024-03-15T07:54:54.225Z,100606.56
2024-03-15T07:57:21.444Z,100649.91
2024-03-15T07:59:50.634Z,100664.50
2024-03-15T08:02:18.230Z,100612.19
2024-03-15T08:04:49.281Z,100658.59
2024-03-15T08:07:16.563Z,100674.41
2024-03-15T08:09:46.433Z,100670.31
2024-03-15T08:12:16.486Z,100628.50
2024-03-15T08:14:44.553Z,100668.44
2024-03-15T08:17:11.931Z,100635.13
2024-03-15T08:19:42.186Z,100592.81
2024-03-15T08:22:10.549Z,100660.97
2024-03-15T08:24:41.937Z,100669.25
2024-03-15T08:27:12.707Z,100667.94
2024-03-15T08:29:42.523Z,100661.44
2024-03-15T08:32:09.366Z,100670.53
2024-03-15T08:34:45.771Z,100664.91
2024-03-15T08:37:12.956Z,100660.94
2024-03-15T08:39:39.889Z,100653.06
2024-03-15T08:42:06.970Z,100667.38
2024-03-15T08:44:34.454Z,100573.94
2024-03-15T08:47:04.959Z,100655.84
2024-03-15T08:49:32.634Z,100673.25
2024-03-15T08:51:59.655Z,100675.22
2024-03-15T08:54:26.586Z,100668.94
2024-03-15T08:56:54.710Z,100665.72
2024-03-15T08:59:21.553Z,100665.19
2024-03-15T09:01:49.279Z,100656.69
2024-03-15T09:04:19.645Z,100669.69
2024-03-15T09:06:47.613Z,100662.34
2024-03-15T09:09:16.755Z,100590.13
2024-03-15T09:11:46.743Z,100665.84
2024-03-15T09:14:20.117Z,100588.41
2024-03-15T09:16:48.407Z,100668.53
2024-03-15T09:19:15.618Z,100676.19
2024-03-15T09:21:44.146Z,100598.38
2024-03-15T09:24:13.427Z,100626.13
2024-03-15T09:26:41.851Z,100637.38
2024-03-15T09:29:09.407Z,100646.44
2024-03-15T09:31:59.414Z,100690.38
2024-03-15T09:34:30.291Z,100678.75
2024-03-15T09:36:58.394Z,100626.75
2024-03-15T09:39:25.324Z,100611.34
2024-03-15T09:41:56.652Z,100614.91
2024-03-15T09:44:30.948Z,100532.56
2024-03-15T09:47:00.599Z,100571.59
2024-03-15T09:49:28.609Z,100514.44
2024-03-15T09:52:00.498Z,100571.44
2024-03-15T09:54:29.944Z,100557.00
2024-03-15T09:56:58.779Z,100466.47
2024-03-15T09:59:32.527Z,100465.00
2024-03-15T10:01:59.181Z,100452.09
2024-03-15T10:04:26.702Z,100530.53
2024-03-15T10:06:53.265Z,100517.09
2024-03-15T10:09:20.026Z,100534.25
2024-03-15T10:11:46.640Z,100535.28
2024-03-15T10:14:13.682Z,100416.13
2024-03-15T10:16:40.321Z,100541.41
2024-03-15T10:19:12.260Z,100523.19
2024-03-15T10:21:40.080Z,100524.75
2024-03-15T10:24:11.759Z,100543.06
2024-03-15T10:26:40.319Z,100550.38
2024-03-15T10:29:09.129Z,100558.19
2024-03-15T10:31:38.150Z,100552.56
2024-03-15T10:34:07.525Z,100585.84
2024-03-15T10:36:34.632Z,100564.13
2024-03-15T10:39:01.402Z,100537.13
2024-03-15T10:41:28.849Z,100615.75
2024-03-15T10:43:57.321Z,100607.59
2024-03-15T10:46:24.026Z,100622.72
2024-03-15T10:48:50.967Z,100573.47
2024-03-15T10:51:17.959Z,100626.25
2024-03-15T10:53:45.294Z,100644.47
2024-03-15T10:56:13.444Z,100624.25
2024-03-15T10:58:40.071Z,100642.50
2024-03-15T11:01:08.770Z,100640.16
2024-03-15T11:03:35.694Z,100632.53
2024-03-15T11:06:07.280Z,100646.97
2024-03-15T11:08:39.273Z,100652.59
2024-03-15T11:11:07.274Z,100665.31
2024-03-15T11:13:38.011Z,100681.81
2024-03-15T11:16:25.654Z,100675.53
2024-03-15T11:18:52.703Z,100616.66
2024-03-15T11:21:21.525Z,100604.84
2024-03-15T11:23:48.596Z,100652.94
2024-03-15T11:26:21.976Z,100668.16
2024-03-15T11:28:58.776Z,100672.72
2024-03-15T11:31:31.366Z,100672.19
2024-03-15T11:33:59.309Z,100634.25
2024-03-15T11:36:27.349Z,100653.13
2024-03-15T11:38:53.947Z,100622.31
2024-03-15T11:41:22.402Z,100673.09
2024-03-15T11:43:50.425Z,100647.88
2024-03-15T11:46:17.637Z,100658.28
2024-03-15T11:48:47.072Z,100678.72
2024-03-15T11:51:15.320Z,100670.25
2024-03-15T11:53:42.615Z,100658.41
2024-03-15T11:56:09.745Z,100686.63
2024-03-15T11:58:43.859Z,100674.75
2024-03-15T12:01:12.025Z,100679.78
2024-03-15T12:03:39.224Z,100691.47
2024-03-15T12:06:09.992Z,100601.00
2024-03-15T12:08:37.844Z,100698.41
2024-03-15T12:11:05.223Z,100686.28
2024-03-15T12:13:31.815Z,100678.53
2024-03-15T12:16:00.414Z,100634.75
2024-03-15T12:18:28.333Z,100688.25
2024-03-15T12:20:55.755Z,100639.19
2024-03-15T12:23:24.129Z,100689.13
2024-03-15T12:25:51.905Z,100682.53
2024-03-15T12:28:21.047Z,100679.63
2024-03-15T12:30:50.236Z,100675.75
2024-03-15T12:33:17.155Z,100695.53
2024-03-15T12:35:45.177Z,100694.63
2024-03-15T12:38:19.806Z,100660.38
2024-03-15T12:40:46.760Z,100687.75
2024-03-15T12:43:13.844Z,100687.84
2024-03-15T12:45:42.928Z,100688.69
2024-03-15T12:48:13.796Z,100682.13
2024-03-15T12:50:41.970Z,100680.34
2024-03-15T12:53:14.839Z,100677.91
2024-03-15T12:55:43.330Z,100539.53
2024-03-15T12:58:10.692Z,100621.25
2024-03-15T13:00:37.588Z,100657.47
2024-03-15T13:04:12.925Z,100687.31
2024-03-15T13:06:39.732Z,100642.09
2024-03-15T13:09:06.452Z,100681.22
2024-03-15T13:11:33.026Z,100680.97
2024-03-15T13:13:59.613Z,100658.84
2024-03-15T13:16:26.261Z,100674.19
2024-03-15T13:18:52.873Z,100670.31
2024-03-15T13:21:19.992Z,100677.16
2024-03-15T13:23:47.285Z,100668.56
2024-03-15T13:26:15.728Z,100676.88
2024-03-15T13:28:44.799Z,100679.88
2024-03-15T13:31:13.595Z,100672.22
2024-03-15T13:33:41.192Z,100596.91
2024-03-15T13:36:10.948Z,100674.84
2024-03-15T13:38:40.037Z,100661.38
2024-03-15T13:41:08.589Z,100682.06
2024-03-15T13:43:47.992Z,100670.53
2024-03-15T13:46:14.991Z,100682.94
2024-03-15T13:48:47.190Z,100604.06
2024-03-15T13:51:17.384Z,100677.59
2024-03-15T13:53:46.174Z,100637.91
2024-03-15T13:56:14.654Z,100601.03
2024-03-15T13:58:41.366Z,100649.19
2024-03-15T14:01:12.981Z,100678.28
2024-03-15T14:03:39.776Z,100669.47
2024-03-15T14:06:07.471Z,100660.91
2024-03-15T14:08:34.011Z,100647.91
2024-03-15T14:11:03.979Z,100596.09
2024-03-15T14:13:31.154Z,100609.47
2024-03-15T14:15:57.686Z,100629.38
2024-03-15T14:18:24.599Z,100606.06
2024-03-15T14:20:54.647Z,100631.63
2024-03-15T14:23:21.589Z,100622.03
2024-03-15T14:25:48.153Z,100627.34
2024-03-15T14:28:14.867Z,100632.75
2024-03-15T14:30:41.590Z,100583.91
2024-03-15T14:33:10.527Z,100610.47
2024-03-15T14:35:38.205Z,100624.25
2024-03-15T14:38:06.304Z,100598.78
2024-03-15T14:40:36.361Z,100628.41
2024-03-15T14:43:04.518Z,100624.16
2024-03-15T14:45:32.772Z,100633.53
2024-03-15T14:48:06.953Z,100627.06
2024-03-15T14:50:39.754Z,100641.22
2024-03-15T14:53:06.618Z,100636.34
2024-03-15T14:55:39.441Z,100630.97
2024-03-15T14:58:08.494Z,100624.47
2024-03-15T15:00:37.233Z,100626.16
2024-03-15T15:03:05.151Z,100658.75
2024-03-15T15:05:35.271Z,99913.47
2024-03-15T15:08:05.046Z,99768.78
2024-03-15T15:10:35.333Z,99583.94
2024-03-15T15:13:02.190Z,99549.16
2024-03-15T15:15:29.613Z,99500.19
2024-03-15T15:17:56.866Z,99429.78
2024-03-15T15:20:24.183Z,99532.78
2024-03-15T15:22:52.026Z,99396.41
2024-03-15T15:25:22.043Z,99387.94
2024-03-15T15:27:50.797Z,99268.88
2024-03-15T15:30:19.165Z,99181.41
2024-03-15T15:32:48.876Z,99097.16
2024-03-15T15:35:16.987Z,99062.94
2024-03-15T15:37:44.660Z,99144.84
2024-03-15T15:40:26.585Z,99138.47
2024-03-15T15:42:57.035Z,99201.94
2024-03-15T15:45:35.211Z,99114.28
2024-03-15T15:48:06.864Z,99163.00
2024-03-15T15:50:34.048Z,99166.09
2024-03-15T15:53:00.815Z,99160.63
2024-03-15T15:55:27.500Z,99118.69
2024-03-15T15:57:56.121Z,99131.81
2024-03-15T16:00:23.500Z,99119.22
2024-03-15T16:02:50.375Z,99098.78
2024-03-15T16:05:18.201Z,99091.25
2024-03-15T16:07:45.709Z,99090.91
2024-03-15T16:10:13.355Z,99108.25
2024-03-15T16:12:40.412Z,99143.94
2024-03-15T16:15:08.232Z,99101.72
2024-03-15T16:17:36.006Z,99149.25
2024-03-15T16:20:02.786Z,99142.06
2024-03-15T16:22:29.450Z,99148.88
2024-03-15T16:24:56.268Z,99159.88
2024-03-15T16:27:23.062Z,99143.56
2024-03-15T16:29:50.413Z,99111.13
2024-03-15T16:32:17.071Z,99143.84
2024-03-15T16:34:44.111Z,99149.34
2024-03-15T16:37:12.068Z,99140.31
2024-03-15T16:39:39.145Z,99151.22
2024-03-15T16:42:06.257Z,99147.25
2024-03-15T16:44:32.968Z,99157.53
2024-03-15T16:46:59.514Z,99180.75
2024-03-15T16:49:26.130Z,99158.06
2024-03-15T16:51:52.836Z,99117.03
2024-03-15T16:54:19.745Z,99172.47
2024-03-15T16:56:46.773Z,99160.97
2024-03-15T16:59:13.508Z,99149.91
2024-03-15T17:01:40.924Z,99128.75
2024-03-15T17:04:11.209Z,99136.50
2024-03-15T17:06:39.143Z,99132.88
2024-03-15T17:09:06.043Z,99115.78
2024-03-15T17:11:34.726Z,99126.13
2024-03-15T17:14:02.183Z,99136.31
2024-03-15T17:16:30.526Z,99143.25
2024-03-15T17:18:58.333Z,99145.09
2024-03-15T17:21:25.576Z,99121.00
2024-03-15T17:23:52.235Z,99169.19
2024-03-15T17:26:18.819Z,99206.81
2024-03-15T17:28:45.485Z,99211.03
2024-03-15T17:31:12.097Z,99213.72
2024-03-15T17:33:38.697Z,99169.50
2024-03-15T17:36:07.070Z,99179.13
2024-03-15T17:38:33.869Z,99174.38
2024-03-15T17:41:00.670Z,99142.84
2024-03-15T17:43:27.954Z,99177.19
2024-03-15T17:45:54.727Z,99157.66
2024-03-15T17:48:21.549Z,99194.38
2024-03-15T17:50:48.236Z,99141.13
2024-03-15T17:53:17.258Z,98981.63
2024-03-15T17:55:43.817Z,98912.94
2024-03-15T17:58:10.960Z,98959.88
2024-03-15T18:00:37.697Z,98926.47
2024-03-15T18:03:05.409Z,98966.00
2024-03-15T18:05:38.462Z,99305.78
2024-03-15T18:08:05.488Z,99174.59
2024-03-15T18:10:32.105Z,99269.97
2024-03-15T18:12:59.867Z,99241.81
2024-03-15T18:15:26.597Z,99407.66
2024-03-15T18:17:53.279Z,99403.13
2024-03-15T18:20:19.963Z,99345.56
2024-03-15T18:22:46.504Z,99282.69
2024-03-15T18:25:14.026Z,99394.06
2024-03-15T18:27:40.700Z,99395.41
2024-03-15T18:30:10.035Z,99321.69
2024-03-15T18:32:37.998Z,99366.63
2024-03-15T18:35:05.419Z,99383.06
2024-03-15T18:37:32.196Z,99283.81
2024-03-15T18:39:59.962Z,99375.22
2024-03-15T18:42:26.975Z,99395.47
2024-03-15T18:44:53.613Z,99413.16
2024-03-15T18:47:20.176Z,99366.50
2024-03-15T18:49:48.290Z,99361.88
2024-03-15T18:52:16.776Z,99422.09
2024-03-15T18:54:44.635Z,99416.56
2024-03-15T18:57:13.275Z,99444.47
2024-03-15T18:59:42.275Z,99465.16
2024-03-15T19:02:09.222Z,99458.00
2024-03-15T19:04:36.026Z,99413.31
2024-03-15T19:07:02.804Z,99470.06
2024-03-15T19:09:29.500Z,99459.75
2024-03-15T19:11:56.136Z,99461.47
2024-03-15T19:14:24.316Z,99391.84
2024-03-15T19:16:53.889Z,99415.38
2024-03-15T19:19:20.830Z,99454.69
2024-03-15T19:21:47.603Z,99411.75
2024-03-15T19:24:15.647Z,99481.41
2024-03-15T19:26:42.205Z,99491.28
2024-03-15T19:29:08.890Z,99482.31
2024-03-15T19:31:35.900Z,99488.78
2024-03-15T19:34:02.577Z,99482.81
2024-03-15T19:36:29.276Z,99498.72
2024-03-15T19:38:56.790Z,99442.59
2024-03-15T19:41:23.323Z,99457.22
2024-03-15T19:43:49.965Z,99504.28
2024-03-15T19:46:18.030Z,99439.75
2024-03-15T19:48:45.098Z,99492.19
2024-03-15T19:51:11.815Z,99483.09
2024-03-15T19:53:38.482Z,99492.56
2024-03-15T19:56:06.142Z,99449.75
2024-03-15T19:58:32.938Z,99463.75
2024-03-15T20:01:00.041Z,99469.03
2024-03-15T20:03:26.814Z,99477.78
2024-03-15T20:05:56.409Z,99506.59
2024-03-15T20:08:24.091Z,99491.75
2024-03-15T20:10:51.076Z,99443.84
2024-03-15T20:13:17.892Z,99489.06
2024-03-15T20:15:45.351Z,99491.06
2024-03-15T20:18:12.203Z,99460.34
2024-03-15T20:20:40.473Z,99517.38
2024-03-15T20:23:07.372Z,99459.00
2024-03-15T20:25:34.108Z,99521.78
2024-03-15T20:28:04.201Z,99472.97
2024-03-15T20:30:31.496Z,99468.84
2024-03-15T20:33:00.255Z,99483.56
2024-03-15T20:35:29.605Z,99535.84
2024-03-15T20:37:57.693Z,99518.00
2024-03-15T20:40:28.421Z,99519.66
2024-03-15T20:42:56.579Z,99511.41
2024-03-15T20:45:24.685Z,99525.44
2024-03-15T20:47:51.762Z,99471.63
2024-03-15T20:50:19.619Z,99492.03
2024-03-15T20:52:46.224Z,99513.19
2024-03-15T20:55:13.029Z,99515.03
2024-03-15T20:57:39.819Z,99495.63
2024-03-15T21:00:09.750Z,99504.06
2024-03-15T21:02:36.322Z,99506.41
2024-03-15T21:05:03.099Z,99506.97
2024-03-15T21:07:30.711Z,99471.56
2024-03-15T21:09:57.256Z,99513.09
2024-03-15T21:12:30.284Z,99496.75
2024-03-15T21:14:56.915Z,99486.47
2024-03-15T21:17:23.652Z,99497.63
2024-03-15T21:19:53.565Z,99492.41
2024-03-15T21:22:20.337Z,99499.00
2024-03-15T21:24:50.528Z,99416.16
2024-03-15T21:27:21.342Z,99503.56
2024-03-15T21:29:48.339Z,99491.75
2024-03-15T21:32:15.027Z,99433.22
2024-03-15T21:34:42.215Z,99490.56
2024-03-15T21:37:08.986Z,99466.13
2024-03-15T21:39:35.696Z,99429.56
2024-03-15T21:42:02.729Z,99377.09
2024-03-15T21:44:29.652Z,99480.28
2024-03-15T21:46:56.406Z,99472.72
2024-03-15T21:49:23.128Z,99446.56
2024-03-15T21:51:55.256Z,99482.66
2024-03-15T21:54:22.003Z,99495.31
2024-03-15T21:56:49.505Z,99503.72
2024-03-15T21:59:23.331Z,99502.06
2024-03-15T22:01:50.601Z,99470.03
2024-03-15T22:04:20.272Z,99480.09
2024-03-15T22:06:47.028Z,99492.41
2024-03-15T22:09:15.039Z,99489.47
2024-03-15T22:11:46.261Z,99492.22
2024-03-15T22:14:12.915Z,99501.53
2024-03-15T22:16:40.288Z,99506.59
2024-03-15T22:19:06.935Z,99502.56
2024-03-15T22:21:33.621Z,99492.66
2024-03-15T22:24:00.225Z,99516.09
2024-03-15T22:26:26.930Z,99519.66
2024-03-15T22:28:53.655Z,99530.59
2024-03-15T22:31:20.229Z,99511.34
2024-03-15T22:33:46.817Z,99466.75
2024-03-15T22:36:13.428Z,99539.13
2024-03-15T22:38:40.088Z,99432.47
2024-03-15T22:41:06.752Z,99475.97
2024-03-15T22:43:34.129Z,99529.75
2024-03-15T22:46:01.394Z,99498.78
2024-03-15T22:48:28.187Z,99521.72
2024-03-15T22:50:57.393Z,99536.34
2024-03-15T22:53:24.018Z,99561.13
2024-03-15T22:55:51.592Z,99554.69
2024-03-15T22:58:18.495Z,99636.88
2024-03-15T23:00:46.972Z,99659.22
2024-03-15T23:03:15.350Z,99659.94
2024-03-15T23:05:42.579Z,99654.72
2024-03-15T23:08:09.238Z,99605.81
2024-03-15T23:10:36.562Z,99663.75
2024-03-15T23:13:07.889Z,99642.53
2024-03-15T23:15:35.635Z,99661.59
2024-03-15T23:18:03.496Z,99615.66
2024-03-15T23:20:30.503Z,99636.44
2024-03-15T23:22:57.125Z,99692.25
2024-03-15T23:25:25.260Z,99702.88
2024-03-15T23:27:52.279Z,99694.47
2024-03-15T23:30:19.896Z,99653.88
2024-03-15T23:32:46.876Z,99701.44
2024-03-15T23:35:13.758Z,99700.84
2024-03-15T23:37:43.243Z,99702.19
2024-03-15T23:40:10.424Z,99726.47
2024-03-15T23:42:40.000Z,99695.09
2024-03-15T23:45:07.478Z,99702.25
2024-03-15T23:47:35.304Z,99700.00
2024-03-15T23:50:04.551Z,99698.75
2024-03-15T23:52:31.457Z,99696.47
2024-03-15T23:54:58.146Z,99609.47
2024-03-15T23:57:26.060Z,99683.91
2024-03-15T23:59:52.660Z,99711.19
